createdAt,value
2018-05-03T00:01:54.663Z,5.85
2018-05-03T00:04:22.149Z,5.15
2018-05-03T00:06:49.666Z,5.97
2018-05-03T00:09:17.174Z,5.37
2018-05-03T00:11:44.693Z,5.80
2018-05-03T00:14:12.249Z,6.00
2018-05-03T00:16:40.525Z,6.35
2018-05-03T00:19:08.073Z,5.60
2018-05-03T00:21:35.590Z,5.80
2018-05-03T00:24:03.091Z,6.05
2018-05-03T00:26:30.690Z,5.82
2018-05-03T00:28:58.988Z,5.30
2018-05-03T00:31:26.604Z,5.87
2018-05-03T00:33:54.096Z,6.12
2018-05-03T00:36:21.592Z,6.43
2018-05-03T00:38:49.091Z,6.57
2018-05-03T00:41:17.420Z,5.68
2018-05-03T00:43:44.923Z,5.93
2018-05-03T00:46:12.441Z,6.35
2018-05-03T00:48:40.064Z,5.15
2018-05-03T00:51:08.319Z,5.62
2018-05-03T00:53:35.831Z,5.05
2018-05-03T00:56:03.350Z,5.68
2018-05-03T00:58:31.638Z,5.68
2018-05-03T01:00:59.903Z,5.12
2018-05-03T01:03:28.181Z,5.28
2018-05-03T01:05:56.459Z,5.10
2018-05-03T01:08:24.756Z,5.10
2018-05-03T01:10:52.299Z,6.00
2018-05-03T01:13:20.566Z,5.40
2018-05-03T01:15:48.830Z,5.80
2018-05-03T01:18:16.349Z,5.60
2018-05-03T01:20:56.579Z,6.28
2018-05-03T01:23:24.527Z,4.82
2018-05-03T01:25:52.827Z,5.55
2018-05-03T01:28:20.365Z,5.78
2018-05-03T01:30:48.619Z,5.75
2018-05-03T01:33:16.136Z,5.72
2018-05-03T01:35:55.448Z,5.40
2018-05-03T01:38:22.954Z,6.55
2018-05-03T01:40:50.441Z,5.90
2018-05-03T01:43:18.688Z,6.57
2018-05-03T01:45:46.243Z,5.80
2018-05-03T01:48:13.788Z,8.40
2018-05-03T01:50:41.305Z,7.05
2018-05-03T01:53:09.585Z,7.30
2018-05-03T01:55:37.867Z,6.40
2018-05-03T01:58:05.386Z,6.62
2018-05-03T02:00:32.887Z,7.07
2018-05-03T02:03:00.441Z,6.45
2018-05-03T02:05:28.092Z,7.40
2018-05-03T02:07:56.357Z,7.47
2018-05-03T02:10:24.632Z,6.75
2018-05-03T02:12:52.100Z,6.70
2018-05-03T02:15:20.376Z,7.03
2018-05-03T02:17:48.649Z,7.45
2018-05-03T02:20:16.203Z,6.60
2018-05-03T02:22:44.489Z,7.60
2018-05-03T02:25:12.869Z,6.53
2018-05-03T02:27:41.153Z,6.12
2018-05-03T02:30:08.689Z,5.85
2018-05-03T02:32:36.173Z,6.07
2018-05-03T02:35:03.653Z,6.32
2018-05-03T02:37:31.213Z,6.40
2018-05-03T02:39:58.696Z,5.43
2018-05-03T02:42:26.317Z,4.55
2018-05-03T02:44:53.809Z,6.60
2018-05-03T02:47:21.385Z,8.10
2018-05-03T02:49:48.976Z,6.40
2018-05-03T02:52:17.497Z,5.50
2018-05-03T02:54:45.008Z,6.60
2018-05-03T02:57:24.343Z,5.62
2018-05-03T03:00:04.652Z,5.70
2018-05-03T03:02:49.740Z,4.95
2018-05-03T03:05:35.116Z,5.07
2018-05-03T03:08:24.094Z,5.60
2018-05-03T03:11:09.484Z,5.47
2018-05-03T03:17:26.229Z,5.57
2018-05-03T03:20:07.058Z,5.32
2018-05-03T03:22:52.997Z,5.22
2018-05-03T03:25:53.080Z,5.03
2018-05-03T03:28:39.433Z,5.30
2018-05-03T03:31:24.821Z,5.85
2018-05-03T03:34:04.239Z,5.55
2018-05-03T03:39:53.551Z,6.45
2018-05-03T03:45:37.656Z,6.03
2018-05-03T03:48:05.155Z,5.75
2018-05-03T03:50:33.409Z,5.28
2018-05-03T03:53:01.668Z,6.22
2018-05-03T03:55:29.197Z,6.60
2018-05-03T03:57:56.789Z,6.53
2018-05-03T04:00:24.320Z,6.68
2018-05-03T04:02:51.836Z,7.62
2018-05-03T04:05:19.484Z,6.50
2018-05-03T04:07:47.733Z,9.07
2018-05-03T04:10:15.261Z,10.75
2018-05-03T04:12:42.769Z,18.80
2018-05-03T04:15:10.277Z,12.00
2018-05-03T04:17:49.823Z,14.30
2018-05-03T04:20:40.148Z,14.85
2018-05-03T04:26:02.865Z,13.45
2018-05-03T04:28:30.355Z,13.98
2018-05-03T04:30:58.168Z,14.50
2018-05-03T04:33:26.548Z,14.32
2018-05-03T04:35:54.136Z,13.40
2018-05-03T04:38:21.654Z,14.20
2018-05-03T04:40:49.944Z,12.88
2018-05-03T04:43:17.504Z,12.98
2018-05-03T04:45:45.032Z,13.23
2018-05-03T04:48:12.550Z,13.55
2018-05-03T04:50:40.167Z,12.60
2018-05-03T04:53:08.489Z,12.32
2018-05-03T04:55:35.986Z,12.82
2018-05-03T04:58:03.568Z,11.75
2018-05-03T05:00:31.877Z,9.40
2018-05-03T05:02:59.377Z,10.82
2018-05-03T05:05:26.933Z,8.90
2018-05-03T05:07:54.484Z,8.88
2018-05-03T05:10:22.122Z,8.05
2018-05-03T05:12:49.687Z,8.10
2018-05-03T05:15:17.176Z,8.25
2018-05-03T05:17:44.760Z,8.70
2018-05-03T05:20:13.144Z,8.13
2018-05-03T05:22:41.408Z,8.77
2018-05-03T05:25:09.688Z,7.57
2018-05-03T05:27:38.072Z,8.70
2018-05-03T05:30:06.335Z,6.80
2018-05-03T05:32:34.664Z,7.73
2018-05-03T05:35:02.284Z,6.10
2018-05-03T05:37:29.836Z,6.00
2018-05-03T05:39:58.120Z,6.73
2018-05-03T05:42:26.394Z,7.67
2018-05-03T05:44:53.924Z,7.30
2018-05-03T05:47:21.508Z,6.17
2018-05-03T05:49:49.788Z,6.20
2018-05-03T05:52:18.058Z,6.67
2018-05-03T05:54:45.565Z,6.97
2018-05-03T05:57:13.057Z,6.80
2018-05-03T05:59:40.567Z,7.23
2018-05-03T06:02:08.071Z,7.47
2018-05-03T06:04:35.565Z,6.00
2018-05-03T06:07:03.853Z,6.43
2018-05-03T06:09:31.393Z,7.53
2018-05-03T06:11:59.673Z,7.00
2018-05-03T06:14:27.932Z,7.13
2018-05-03T06:16:55.513Z,6.43
2018-05-03T06:19:23.775Z,6.47
2018-05-03T06:21:52.119Z,6.83
2018-05-03T06:24:19.637Z,6.87
2018-05-03T06:26:51.730Z,7.03
2018-05-03T06:29:19.269Z,7.20
2018-05-03T06:31:46.778Z,8.20
2018-05-03T06:34:14.268Z,6.90
2018-05-03T06:36:41.784Z,6.20
2018-05-03T06:39:09.297Z,6.27
2018-05-03T06:41:36.785Z,6.10
2018-05-03T06:44:04.317Z,6.03
2018-05-03T06:46:31.811Z,5.23
2018-05-03T06:48:59.392Z,5.77
2018-05-03T06:51:27.793Z,5.47
2018-05-03T06:53:59.507Z,5.20
2018-05-03T06:56:27.011Z,5.83
2018-05-03T06:58:55.300Z,5.00
2018-05-03T07:01:22.788Z,6.80
2018-05-03T07:03:50.399Z,5.20
2018-05-03T07:06:17.973Z,4.90
2018-05-03T07:08:45.516Z,5.17
2018-05-03T07:11:13.878Z,4.50
2018-05-03T07:13:41.376Z,4.50
2018-05-03T07:16:08.870Z,4.27
2018-05-03T07:18:36.396Z,4.67
2018-05-03T07:21:04.025Z,5.50
2018-05-03T07:23:31.830Z,6.83
2018-05-03T07:25:59.312Z,4.87
2018-05-03T07:28:26.790Z,4.10
2018-05-03T07:30:54.305Z,4.57
2018-05-03T07:33:21.815Z,4.30
2018-05-03T07:35:50.246Z,4.10
2018-05-03T07:38:17.744Z,5.10
2018-05-03T07:40:45.237Z,4.40
2018-05-03T07:43:13.484Z,5.00
2018-05-03T07:45:41.804Z,4.60
2018-05-03T07:48:09.324Z,4.47
2018-05-03T07:50:37.608Z,4.63
2018-05-03T07:53:05.974Z,4.80
2018-05-03T07:55:34.248Z,4.53
2018-05-03T07:58:01.760Z,5.60
2018-05-03T08:00:29.307Z,5.77
2018-05-03T08:02:56.783Z,5.40
2018-05-03T08:05:24.300Z,4.10
2018-05-03T08:07:52.577Z,4.97
2018-05-03T08:10:20.945Z,4.50
2018-05-03T08:12:49.231Z,4.67
2018-05-03T08:15:16.763Z,4.63
2018-05-03T08:17:44.272Z,4.20
2018-05-03T08:20:11.761Z,4.40
2018-05-03T08:22:39.269Z,4.50
2018-05-03T08:25:07.529Z,4.77
2018-05-03T08:27:34.999Z,4.17
2018-05-03T08:30:02.498Z,4.10
2018-05-03T08:32:29.989Z,4.60
2018-05-03T08:34:58.297Z,4.33
2018-05-03T08:37:26.559Z,4.33
2018-05-03T08:39:54.833Z,4.30
2018-05-03T08:42:23.097Z,3.83
2018-05-03T08:44:51.388Z,3.83
2018-05-03T08:47:19.929Z,4.63
2018-05-03T08:49:47.428Z,3.47
2018-05-03T08:52:15.671Z,3.80
2018-05-03T08:54:43.220Z,4.03
2018-05-03T08:57:10.728Z,4.50
2018-05-03T08:59:38.306Z,4.07
2018-05-03T09:02:05.808Z,4.33
2018-05-03T09:04:33.324Z,3.93
2018-05-03T09:07:00.804Z,3.60
2018-05-03T09:09:28.292Z,3.33
2018-05-03T09:11:56.611Z,3.77
2018-05-03T09:14:24.095Z,4.40
2018-05-03T09:16:51.699Z,4.27
2018-05-03T09:19:19.984Z,4.17
2018-05-03T09:21:47.528Z,4.10
2018-05-03T09:24:15.810Z,4.50
2018-05-03T09:26:44.076Z,4.97
2018-05-03T09:29:11.632Z,4.13
2018-05-03T09:31:39.912Z,4.43
2018-05-03T09:34:07.405Z,4.30
2018-05-03T09:36:34.914Z,5.03
2018-05-03T09:39:02.434Z,5.00
2018-05-03T09:41:30.771Z,5.37
2018-05-03T09:43:59.053Z,4.87
2018-05-03T09:46:27.334Z,5.00
2018-05-03T09:48:55.597Z,5.57
2018-05-03T09:51:23.972Z,5.67
2018-05-03T09:53:52.213Z,5.40
2018-05-03T09:56:19.713Z,4.80
2018-05-03T09:58:47.985Z,5.40
2018-05-03T10:01:16.328Z,5.47
2018-05-03T10:03:44.549Z,4.80
2018-05-03T10:06:12.046Z,4.90
2018-05-03T10:08:39.532Z,4.87
2018-05-03T10:11:07.160Z,5.33
2018-05-03T10:13:34.685Z,5.73
2018-05-03T10:16:02.947Z,4.90
2018-05-03T10:18:31.239Z,4.80
2018-05-03T10:20:59.492Z,4.60
2018-05-03T10:23:28.176Z,4.00
2018-05-03T10:25:56.862Z,4.17
2018-05-03T10:28:24.350Z,3.43
2018-05-03T10:30:51.896Z,3.87
2018-05-03T10:33:20.188Z,3.63
2018-05-03T10:35:47.688Z,3.77
2018-05-03T10:38:15.216Z,3.20
2018-05-03T10:40:42.708Z,3.57
2018-05-03T10:43:10.192Z,2.70
2018-05-03T10:45:38.576Z,3.20
2018-05-03T10:48:06.860Z,3.67
2018-05-03T10:50:35.147Z,3.90
2018-05-03T10:53:03.504Z,3.63
2018-05-03T10:55:31.779Z,3.43
2018-05-03T10:58:00.058Z,4.00
2018-05-03T11:00:28.316Z,3.43
2018-05-03T11:02:55.813Z,4.00
2018-05-03T11:05:23.342Z,7.13
2018-05-03T11:07:50.782Z,5.47
2018-05-03T11:10:18.332Z,13.13
2018-05-03T11:12:45.841Z,6.00
2018-05-03T11:15:13.386Z,8.60
2018-05-03T11:17:41.659Z,7.60
2018-05-03T11:20:09.925Z,6.83
2018-05-03T11:22:38.193Z,4.87
2018-05-03T11:25:05.719Z,6.80
2018-05-03T11:27:33.597Z,5.30
2018-05-03T11:30:01.121Z,4.87
2018-05-03T11:32:28.603Z,4.33
2018-05-03T11:34:56.111Z,4.07
2018-05-03T11:37:24.419Z,3.77
2018-05-03T11:39:51.948Z,4.87
2018-05-03T11:42:20.211Z,3.47
2018-05-03T11:44:48.490Z,2.63
2018-05-03T11:47:16.755Z,3.27
2018-05-03T11:49:44.351Z,3.83
2018-05-03T11:52:11.851Z,4.30
2018-05-03T11:54:39.383Z,5.70
2018-05-03T11:57:06.908Z,4.50
2018-05-03T11:59:34.402Z,4.57
2018-05-03T12:02:01.913Z,4.83
2018-05-03T12:04:29.488Z,6.13
2018-05-03T12:06:57.781Z,3.80
2018-05-03T12:09:26.141Z,4.10
2018-05-03T12:11:54.526Z,3.70
2018-05-03T12:14:22.771Z,4.43
2018-05-03T12:16:50.310Z,4.00
2018-05-03T12:19:17.813Z,3.50
2018-05-03T12:21:46.087Z,3.60
2018-05-03T12:24:13.940Z,4.33
2018-05-03T12:26:43.058Z,3.70
2018-05-03T12:29:23.764Z,3.63
2018-05-03T12:31:51.358Z,3.93
2018-05-03T12:34:19.236Z,3.50
2018-05-03T12:36:46.716Z,4.00
2018-05-03T12:39:14.246Z,4.30
2018-05-03T12:41:42.698Z,4.13
2018-05-03T12:44:10.303Z,3.40
2018-05-03T12:46:38.570Z,4.17
2018-05-03T12:49:06.864Z,4.03
2018-05-03T12:51:34.357Z,4.27
2018-05-03T12:54:01.832Z,5.20
2018-05-03T12:56:29.351Z,4.00
2018-05-03T12:58:58.276Z,3.20
2018-05-03T13:01:25.868Z,3.43
2018-05-03T13:03:54.136Z,4.67
2018-05-03T13:06:21.640Z,3.67
2018-05-03T13:08:49.119Z,3.73
2018-05-03T13:11:16.722Z,3.60
2018-05-03T13:13:45.833Z,4.00
2018-05-03T13:16:13.334Z,3.53
2018-05-03T13:18:40.844Z,3.60
2018-05-03T13:21:09.106Z,4.20
2018-05-03T13:23:37.388Z,4.27
2018-05-03T13:26:05.649Z,3.90
2018-05-03T13:28:33.260Z,4.47
2018-05-03T13:31:00.743Z,3.77
2018-05-03T13:33:28.268Z,4.77
2018-05-03T13:35:55.816Z,4.40
2018-05-03T13:38:23.361Z,4.17
2018-05-03T13:40:51.623Z,4.07
2018-05-03T13:43:19.172Z,3.47
2018-05-03T13:45:46.712Z,3.83
2018-05-03T13:48:14.263Z,4.20
2018-05-03T13:50:41.770Z,4.17
2018-05-03T13:53:10.007Z,3.20
2018-05-03T13:55:37.508Z,3.60
2018-05-03T13:58:05.773Z,4.10
2018-05-03T14:00:34.064Z,3.03
2018-05-03T14:03:02.401Z,3.30
2018-05-03T14:05:29.889Z,3.47
2018-05-03T14:07:59.045Z,3.90
2018-05-03T14:10:26.537Z,4.87
2018-05-03T14:12:54.842Z,3.60
2018-05-03T14:15:22.427Z,3.10
2018-05-03T14:17:49.919Z,3.20
2018-05-03T14:20:17.438Z,3.77
2018-05-03T14:22:44.945Z,3.10
2018-05-03T14:25:12.455Z,3.90
2018-05-03T14:27:39.987Z,4.07
2018-05-03T14:30:07.515Z,3.33
2018-05-03T14:32:34.989Z,3.50
2018-05-03T14:35:03.437Z,3.97
2018-05-03T14:37:30.977Z,3.57
2018-05-03T14:39:58.486Z,3.13
2018-05-03T14:42:26.760Z,4.17
2018-05-03T14:44:55.052Z,4.00
2018-05-03T14:47:22.643Z,4.00
2018-05-03T14:49:50.473Z,3.70
2018-05-03T14:52:19.574Z,3.40
2018-05-03T14:54:48.332Z,4.40
2018-05-03T14:57:16.940Z,3.50
2018-05-03T14:59:45.190Z,3.57
2018-05-03T15:02:13.478Z,4.53
2018-05-03T15:04:42.584Z,4.30
2018-05-03T15:07:17.434Z,4.27
2018-05-03T15:09:44.922Z,4.33
2018-05-03T15:12:12.432Z,4.00
2018-05-03T15:14:41.112Z,3.63
2018-05-03T15:17:09.412Z,3.53
2018-05-03T15:19:37.090Z,3.73
2018-05-03T15:22:04.593Z,4.57
2018-05-03T15:24:32.865Z,3.90
2018-05-03T15:27:01.993Z,3.43
2018-05-03T15:29:29.531Z,3.50
2018-05-03T15:31:57.920Z,3.60
2018-05-03T15:34:26.180Z,4.03
2018-05-03T15:36:54.079Z,3.67
2018-05-03T15:39:21.714Z,3.30
2018-05-03T15:41:49.140Z,3.77
2018-05-03T15:44:16.681Z,3.90
2018-05-03T15:46:44.168Z,3.70
2018-05-03T15:49:11.768Z,4.20
2018-05-03T15:51:39.314Z,3.90
2018-05-03T15:54:08.411Z,5.00
2018-05-03T15:56:36.672Z,4.77
2018-05-03T15:59:04.910Z,3.40
2018-05-03T16:01:32.593Z,3.47
2018-05-03T16:04:00.790Z,3.87
2018-05-03T16:06:29.012Z,3.87
2018-05-03T16:08:56.541Z,6.07
2018-05-03T16:11:24.402Z,16.50
2018-05-03T16:13:52.901Z,12.37
2018-05-03T16:16:20.429Z,71.90
2018-05-03T16:18:48.718Z,65.17
2018-05-03T16:21:17.014Z,157.80
2018-05-03T16:23:44.555Z,203.73
2018-05-03T16:26:12.846Z,151.27
2018-05-03T16:28:40.329Z,52.07
2018-05-03T16:31:08.560Z,11.93
2018-05-03T16:33:36.811Z,11.13
2018-05-03T16:36:05.853Z,29.47
2018-05-03T16:38:33.383Z,72.57
2018-05-03T16:41:01.800Z,49.17
2018-05-03T16:43:29.292Z,4.20
2018-05-03T16:45:56.837Z,4.63
2018-05-03T16:48:24.364Z,5.20
2018-05-03T16:50:51.936Z,13.33
2018-05-03T16:53:19.500Z,10.30
2018-05-03T16:55:47.013Z,10.87
2018-05-03T16:58:15.276Z,14.37
2018-05-03T17:00:43.585Z,4.97
2018-05-03T17:03:11.893Z,6.50
2018-05-03T17:05:39.372Z,5.50
2018-05-03T17:08:06.897Z,3.70
2018-05-03T17:10:34.384Z,8.00
2018-05-03T17:13:01.910Z,4.50
2018-05-03T17:15:29.444Z,3.57
2018-05-03T17:17:56.949Z,4.00
2018-05-03T17:20:24.664Z,3.40
2018-05-03T17:22:52.944Z,3.10
2018-05-03T17:25:20.447Z,3.23
2018-05-03T17:27:47.996Z,4.70
2018-05-03T17:30:15.495Z,4.50
2018-05-03T17:32:44.645Z,3.50
2018-05-03T17:35:12.132Z,3.80
2018-05-03T17:37:39.694Z,4.83
2018-05-03T17:40:07.435Z,5.03
2018-05-03T17:42:34.959Z,13.00
2018-05-03T17:45:02.464Z,7.60
2018-05-03T17:47:29.940Z,4.73
2018-05-03T17:49:58.218Z,3.97
2018-05-03T17:52:25.776Z,4.13
2018-05-03T17:54:53.290Z,4.03
2018-05-03T17:57:20.796Z,3.50
2018-05-03T17:59:48.303Z,4.10
2018-05-03T18:02:15.784Z,3.83
2018-05-03T18:04:43.462Z,4.37
2018-05-03T18:07:11.813Z,11.87
2018-05-03T18:09:39.386Z,8.87
2018-05-03T18:12:06.896Z,8.87
2018-05-03T18:14:34.435Z,5.97
2018-05-03T18:17:02.688Z,5.07
2018-05-03T18:19:30.178Z,4.17
2018-05-03T18:21:58.571Z,4.60
2018-05-03T18:24:26.836Z,4.40
2018-05-03T18:26:55.275Z,5.50
2018-05-03T18:29:22.808Z,5.50
2018-05-03T18:31:50.316Z,5.93
2018-05-03T18:34:18.687Z,6.53
2018-05-03T18:36:47.081Z,4.77
2018-05-03T18:39:15.730Z,3.70
2018-05-03T18:41:43.335Z,4.63
2018-05-03T18:44:10.805Z,6.27
2018-05-03T18:46:39.172Z,5.00
2018-05-03T18:49:06.980Z,3.90
2018-05-03T18:51:34.588Z,5.30
2018-05-03T18:54:02.884Z,3.87
2018-05-03T18:56:30.386Z,3.90
2018-05-03T18:58:57.908Z,5.17
2018-05-03T19:01:25.640Z,4.17
2018-05-03T19:03:54.736Z,4.70
2018-05-03T19:06:23.261Z,4.20
2018-05-03T19:08:50.837Z,5.40
2018-05-03T19:11:18.533Z,3.87
2018-05-03T19:13:46.835Z,4.18
2018-05-03T19:16:15.506Z,3.60
2018-05-03T19:18:43.861Z,2.87
2018-05-03T19:21:12.347Z,4.60
2018-05-03T19:23:39.914Z,6.47
2018-05-03T19:26:07.430Z,4.87
2018-05-03T19:28:34.946Z,4.30
2018-05-03T19:31:03.223Z,4.80
2018-05-03T19:33:31.746Z,3.47
2018-05-03T19:35:59.263Z,2.90
2018-05-03T19:38:27.535Z,3.70
2018-05-03T19:40:55.825Z,3.23
2018-05-03T19:43:24.282Z,3.37
2018-05-03T19:45:52.706Z,2.73
2018-05-03T19:48:20.244Z,2.70
2018-05-03T19:50:48.609Z,3.33
2018-05-03T19:53:16.161Z,2.80
2018-05-03T19:55:44.432Z,3.40
2018-05-03T19:58:12.725Z,3.60
2018-05-03T20:00:42.697Z,3.60
2018-05-03T20:03:11.317Z,3.40
2018-05-03T20:05:38.868Z,3.00
2018-05-03T20:08:07.283Z,3.23
2018-05-03T20:10:35.476Z,2.85
2018-05-03T20:13:03.726Z,2.70
2018-05-03T20:15:31.907Z,2.93
2018-05-03T20:17:59.437Z,3.15
2018-05-03T20:20:27.716Z,3.13
2018-05-03T20:22:55.246Z,3.10
2018-05-03T20:25:22.783Z,2.85
2018-05-03T20:27:50.359Z,2.90
2018-05-03T20:30:18.366Z,3.53
2018-05-03T20:32:46.680Z,3.20
2018-05-03T20:35:14.183Z,3.53
2018-05-03T20:37:42.502Z,3.90
2018-05-03T20:40:10.024Z,3.93
2018-05-03T20:42:38.272Z,3.70
2018-05-03T20:45:05.808Z,3.45
2018-05-03T20:47:33.284Z,4.23
2018-05-03T20:50:00.879Z,4.18
2018-05-03T20:52:29.157Z,3.95
2018-05-03T20:54:57.468Z,4.25
2018-05-03T20:57:24.998Z,4.10
2018-05-03T20:59:52.500Z,4.68
2018-05-03T21:02:20.045Z,3.90
2018-05-03T21:04:47.732Z,4.27
2018-05-03T21:07:15.245Z,4.10
2018-05-03T21:09:42.733Z,3.50
2018-05-03T21:12:10.389Z,4.35
2018-05-03T21:14:41.611Z,3.55
2018-05-03T21:17:09.151Z,3.80
2018-05-03T21:19:37.529Z,3.25
2018-05-03T21:22:05.809Z,3.72
2018-05-03T21:24:34.107Z,3.60
2018-05-03T21:27:02.369Z,4.05
2018-05-03T21:29:29.851Z,3.97
2018-05-03T21:31:57.369Z,4.03
2018-05-03T21:34:26.055Z,3.67
2018-05-03T21:36:54.317Z,3.37
2018-05-03T21:39:21.828Z,3.90
2018-05-03T21:41:49.378Z,3.87
2018-05-03T21:44:17.659Z,3.42
2018-05-03T21:46:45.185Z,3.92
2018-05-03T21:49:13.578Z,3.65
2018-05-03T21:51:41.076Z,3.92
2018-05-03T21:54:08.627Z,3.62
2018-05-03T21:56:36.149Z,4.55
2018-05-03T21:59:03.836Z,3.90
2018-05-03T22:01:31.361Z,4.65
2018-05-03T22:03:59.776Z,3.58
2018-05-03T22:06:27.212Z,4.12
2018-05-03T22:08:54.746Z,4.00
2018-05-03T22:11:22.270Z,4.00
2018-05-03T22:13:49.890Z,4.22
2018-05-03T22:16:17.444Z,4.30
2018-05-03T22:18:45.683Z,5.00
2018-05-03T22:21:13.179Z,4.55
2018-05-03T22:23:40.730Z,4.90
2018-05-03T22:26:08.999Z,4.37
2018-05-03T22:28:37.269Z,4.28
2018-05-03T22:31:05.760Z,5.60
2018-05-03T22:33:34.145Z,10.57
2018-05-03T22:36:02.415Z,7.20
2018-05-03T22:38:30.669Z,5.55
2018-05-03T22:40:58.187Z,4.10
2018-05-03T22:43:25.664Z,4.25
2018-05-03T22:45:53.200Z,4.60
2018-05-03T22:48:20.732Z,4.40
2018-05-03T22:50:48.994Z,5.07
2018-05-03T22:53:17.272Z,6.20
2018-05-03T22:55:45.700Z,5.32
2018-05-03T22:58:13.244Z,5.90
2018-05-03T23:00:40.761Z,4.50
2018-05-03T23:03:08.271Z,4.35
2018-05-03T23:05:35.779Z,5.07
2018-05-03T23:08:03.747Z,3.67
2018-05-03T23:10:31.263Z,4.28
2018-05-03T23:12:58.760Z,4.25
2018-05-03T23:15:26.497Z,4.93
2018-05-03T23:17:56.387Z,4.20
2018-05-03T23:20:23.887Z,5.30
2018-05-03T23:22:51.452Z,5.10
2018-05-03T23:25:19.036Z,4.82
2018-05-03T23:27:47.291Z,4.85
2018-05-03T23:30:14.791Z,4.70
2018-05-03T23:32:42.313Z,5.18
2018-05-03T23:35:10.576Z,5.65
2018-05-03T23:37:38.069Z,5.57
2018-05-03T23:40:06.432Z,5.10
2018-05-03T23:42:46.688Z,6.55
2018-05-03T23:45:14.952Z,5.78
2018-05-03T23:47:42.810Z,6.50
2018-05-03T23:50:10.346Z,5.57
2018-05-03T23:52:38.468Z,5.93
2018-05-03T23:55:06.708Z,4.32
2018-05-03T23:57:34.214Z,5.35
